Aviation Digital Data Service (ADDS)

Output produced by METARs form (0747 UTC 25 April 2014)
found at http://aviationweather.gov/adds/metars/
 
KFAY 250540Z 2506/2606 14006KT P6SM FEW045 SCT250 
     TEMPO 2512/2515 5SM -SHRA BKN015 BKN040 
     FM251600 19013G20KT P6SM VCSH BKN025 
     FM251800 21014G23KT P6SM VCSH SCT025 BKN035 
     TEMPO 2519/2522 2SM TSRA BKN020CB 
     FM260000 26008KT P6SM FEW250